Terminal Aerodrome Forecast
Issued by NWS Shreveport, LA

Home | Current Version | Previous Version | Text Only | Print | Product List | Glossary On
Versions: 1 2 3 4 5 6 7 8 9 10 11 12 13 14 15 16 17 18 19 20
000
FTUS44 KSHV 190000 AAA
TAFELD
TAF AMD
KELD 190052Z 1901/1924 VRB04KT P6SM SCT250
      TEMPO 1901/1903 5SM -RA BR BKN025
     FM190300 00000KT P6SM BKN250
      TEMPO 1909/1912 4SM BR
     FM191500 08005KT P6SM SCT250=

USA.gov is the U.S. government's official web portal to all federal, state and local government web resources and services.